sensor_id;sensor_type;location;lat;lon;timestamp;pressure;altitude;pressure_sealevel;temperature;humidity
49122;BME280;35529;44.342;25.944;2022-07-30T00:00:21;100674.03;;;24.79;74.02
49122;BME280;35529;44.342;25.944;2022-07-30T00:02:48;100670.50;;;24.78;74.04
49122;BME280;35529;44.342;25.944;2022-07-30T00:05:15;100677.16;;;24.62;74.84
49122;BME280;35529;44.342;25.944;2022-07-30T00:07:41;100673.25;;;24.43;75.36
49122;BME280;35529;44.342;25.944;2022-07-30T00:10:07;100673.69;;;24.21;76.57
49122;BME280;35529;44.342;25.944;2022-07-30T00:12:33;100683.81;;;24.10;77.18
49122;BME280;35529;44.342;25.944;2022-07-30T00:15:00;100677.63;;;24.05;77.34
49122;BME280;35529;44.342;25.944;2022-07-30T00:17:26;100682.22;;;24.04;77.54
49122;BME280;35529;44.342;25.944;2022-07-30T00:19:52;100677.66;;;24.00;77.79
49122;BME280;35529;44.342;25.944;2022-07-30T00:22:18;100681.41;;;24.09;77.23
49122;BME280;35529;44.342;25.944;2022-07-30T00:24:44;100672.69;;;24.12;77.13
49122;BME280;35529;44.342;25.944;2022-07-30T00:27:10;100669.16;;;24.17;76.80
49122;BME280;35529;44.342;25.944;2022-07-30T00:29:39;100674.44;;;24.32;76.00
49122;BME280;35529;44.342;25.944;2022-07-30T00:32:05;100680.63;;;24.38;75.57
49122;BME280;35529;44.342;25.944;2022-07-30T00:34:31;100678.16;;;24.41;75.25
49122;BME280;35529;44.342;25.944;2022-07-30T00:36:57;100678.78;;;24.33;75.32
49122;BME280;35529;44.342;25.944;2022-07-30T00:39:24;100674.22;;;24.29;75.71
49122;BME280;35529;44.342;25.944;2022-07-30T00:42:00;100676.34;;;24.32;75.76
49122;BME280;35529;44.342;25.944;2022-07-30T00:44:27;100662.00;;;24.26;75.37
49122;BME280;35529;44.342;25.944;2022-07-30T00:46:55;100672.16;;;24.44;74.87
49122;BME280;35529;44.342;25.944;2022-07-30T00:49:21;100671.25;;;24.54;74.54
49122;BME280;35529;44.342;25.944;2022-07-30T00:51:48;100673.84;;;24.70;73.63
49122;BME280;35529;44.342;25.944;2022-07-30T00:54:15;100670.63;;;24.68;73.50
49122;BME280;35529;44.342;25.944;2022-07-30T00:56:41;100670.09;;;24.60;73.71
49122;BME280;35529;44.342;25.944;2022-07-30T00:59:07;100672.59;;;24.62;73.49
49122;BME280;35529;44.342;25.944;2022-07-30T01:01:34;100670.75;;;24.82;73.02
49122;BME280;35529;44.342;25.944;2022-07-30T01:04:00;100664.50;;;24.81;72.70
49122;BME280;35529;44.342;25.944;2022-07-30T01:06:26;100671.31;;;24.79;72.58
49122;BME280;35529;44.342;25.944;2022-07-30T01:08:52;100665.50;;;24.61;72.96
49122;BME280;35529;44.342;25.944;2022-07-30T01:11:19;100672.09;;;24.50;73.47
49122;BME280;35529;44.342;25.944;2022-07-30T01:13:46;100667.94;;;24.28;74.16
49122;BME280;35529;44.342;25.944;2022-07-30T01:16:12;100664.06;;;24.05;75.13
49122;BME280;35529;44.342;25.944;2022-07-30T01:18:38;100666.06;;;23.89;75.82
49122;BME280;35529;44.342;25.944;2022-07-30T01:21:27;100660.13;;;23.82;76.17
49122;BME280;35529;44.342;25.944;2022-07-30T01:23:58;100662.56;;;23.83;76.12
49122;BME280;35529;44.342;25.944;2022-07-30T01:26:30;100662.91;;;23.71;76.45
49122;BME280;35529;44.342;25.944;2022-07-30T01:28:56;100655.09;;;23.65;76.72
49122;BME280;35529;44.342;25.944;2022-07-30T01:31:23;100648.31;;;23.62;76.49
49122;BME280;35529;44.342;25.944;2022-07-30T01:33:51;100648.34;;;23.57;76.56
49122;BME280;35529;44.342;25.944;2022-07-30T01:36:20;100649.19;;;23.52;76.55
49122;BME280;35529;44.342;25.944;2022-07-30T01:38:46;100650.78;;;23.58;76.12
49122;BME280;35529;44.342;25.944;2022-07-30T01:41:14;100646.47;;;23.52;76.05
49122;BME280;35529;44.342;25.944;2022-07-30T01:43:41;100646.69;;;23.61;75.69
49122;BME280;35529;44.342;25.944;2022-07-30T01:46:09;100642.06;;;23.62;75.49
49122;BME280;35529;44.342;25.944;2022-07-30T01:48:36;100644.78;;;23.62;75.23
49122;BME280;35529;44.342;25.944;2022-07-30T01:51:06;100643.47;;;23.59;75.17
49122;BME280;35529;44.342;25.944;2022-07-30T01:53:33;100647.25;;;23.58;75.25
49122;BME280;35529;44.342;25.944;2022-07-30T01:56:01;100646.75;;;23.51;75.39
49122;BME280;35529;44.342;25.944;2022-07-30T01:58:28;100647.78;;;23.55;75.48
49122;BME280;35529;44.342;25.944;2022-07-30T02:00:56;100644.47;;;23.68;74.85
49122;BME280;35529;44.342;25.944;2022-07-30T02:03:25;100641.72;;;23.73;74.28
49122;BME280;35529;44.342;25.944;2022-07-30T02:05:59;100639.31;;;23.72;74.33
49122;BME280;35529;44.342;25.944;2022-07-30T02:11:19;100642.34;;;23.60;74.65
49122;BME280;35529;44.342;25.944;2022-07-30T02:14:06;100648.94;;;23.49;74.93
49122;BME280;35529;44.342;25.944;2022-07-30T02:16:34;100646.78;;;23.46;75.33
49122;BME280;35529;44.342;25.944;2022-07-30T02:19:03;100656.84;;;23.35;76.02
49122;BME280;35529;44.342;25.944;2022-07-30T02:21:33;100651.22;;;23.26;76.20
49122;BME280;35529;44.342;25.944;2022-07-30T02:24:01;100654.47;;;23.23;76.44
49122;BME280;35529;44.342;25.944;2022-07-30T02:26:27;100658.53;;;23.25;76.14
49122;BME280;35529;44.342;25.944;2022-07-30T02:28:55;100651.22;;;23.21;76.31
49122;BME280;35529;44.342;25.944;2022-07-30T02:31:24;100654.47;;;23.23;76.58
49122;BME280;35529;44.342;25.944;2022-07-30T02:33:52;100659.91;;;23.13;76.66
49122;BME280;35529;44.342;25.944;2022-07-30T02:36:19;100650.72;;;22.98;77.20
49122;BME280;35529;44.342;25.944;2022-07-30T02:38:46;100653.44;;;22.88;77.66
49122;BME280;35529;44.342;25.944;2022-07-30T02:41:15;100647.25;;;22.82;78.30
49122;BME280;35529;44.342;25.944;2022-07-30T02:43:42;100650.22;;;22.81;78.47
49122;BME280;35529;44.342;25.944;2022-07-30T02:46:08;100645.66;;;22.76;78.91
49122;BME280;35529;44.342;25.944;2022-07-30T02:48:37;100644.03;;;22.75;78.87
49122;BME280;35529;44.342;25.944;2022-07-30T02:51:04;100640.50;;;22.74;78.87
49122;BME280;35529;44.342;25.944;2022-07-30T02:53:31;100644.59;;;22.72;79.43
49122;BME280;35529;44.342;25.944;2022-07-30T02:55:58;100641.31;;;22.75;79.10
49122;BME280;35529;44.342;25.944;2022-07-30T02:58:25;100637.75;;;22.85;78.81
49122;BME280;35529;44.342;25.944;2022-07-30T03:00:52;100632.63;;;22.88;78.50
49122;BME280;35529;44.342;25.944;2022-07-30T03:03:19;100638.25;;;22.97;78.20
49122;BME280;35529;44.342;25.944;2022-07-30T03:05:48;100635.81;;;23.01;78.18
49122;BME280;35529;44.342;25.944;2022-07-30T03:08:15;100638.25;;;23.07;77.81
49122;BME280;35529;44.342;25.944;2022-07-30T03:10:41;100632.56;;;23.14;77.71
49122;BME280;35529;44.342;25.944;2022-07-30T03:13:09;100643.91;;;23.21;77.07
49122;BME280;35529;44.342;25.944;2022-07-30T03:15:37;100649.06;;;23.23;77.16
49122;BME280;35529;44.342;25.944;2022-07-30T03:18:06;100657.47;;;23.11;77.40
49122;BME280;35529;44.342;25.944;2022-07-30T03:20:35;100656.13;;;22.98;78.00
49122;BME280;35529;44.342;25.944;2022-07-30T03:23:02;100662.69;;;22.87;78.55
49122;BME280;35529;44.342;25.944;2022-07-30T03:25:29;100662.41;;;22.83;78.79
49122;BME280;35529;44.342;25.944;2022-07-30T03:27:56;100658.09;;;22.77;79.18
49122;BME280;35529;44.342;25.944;2022-07-30T03:30:24;100649.97;;;22.77;79.31
49122;BME280;35529;44.342;25.944;2022-07-30T03:32:50;100647.53;;;22.70;79.42
49122;BME280;35529;44.342;25.944;2022-07-30T03:35:18;100644.59;;;22.67;80.10
49122;BME280;35529;44.342;25.944;2022-07-30T03:37:46;100654.06;;;22.64;80.17
49122;BME280;35529;44.342;25.944;2022-07-30T03:40:13;100651.34;;;22.64;80.21
49122;BME280;35529;44.342;25.944;2022-07-30T03:42:40;100645.66;;;22.66;80.15
49122;BME280;35529;44.342;25.944;2022-07-30T03:45:06;100648.59;;;22.74;79.81
49122;BME280;35529;44.342;25.944;2022-07-30T03:47:35;100646.16;;;22.83;79.49
49122;BME280;35529;44.342;25.944;2022-07-30T03:50:02;100641.56;;;22.84;79.32
49122;BME280;35529;44.342;25.944;2022-07-30T03:52:28;100641.31;;;22.85;79.21
49122;BME280;35529;44.342;25.944;2022-07-30T03:54:57;100646.69;;;22.90;79.16
49122;BME280;35529;44.342;25.944;2022-07-30T03:57:24;100648.28;;;22.97;78.70
49122;BME280;35529;44.342;25.944;2022-07-30T03:59:50;100654.78;;;23.01;78.64
49122;BME280;35529;44.342;25.944;2022-07-30T04:02:16;100656.13;;;23.03;78.23
49122;BME280;35529;44.342;25.944;2022-07-30T04:04:43;100658.84;;;23.19;77.81
49122;BME280;35529;44.342;25.944;2022-07-30T04:07:09;100651.41;;;23.35;77.24
49122;BME280;35529;44.342;25.944;2022-07-30T04:09:35;100649.81;;;23.39;76.77
49122;BME280;35529;44.342;25.944;2022-07-30T04:12:02;100649.44;;;23.56;76.07
49122;BME280;35529;44.342;25.944;2022-07-30T04:14:41;100653.47;;;23.64;75.35
49122;BME280;35529;44.342;25.944;2022-07-30T04:17:11;100652.09;;;23.66;75.21
49122;BME280;35529;44.342;25.944;2022-07-30T04:19:43;100652.88;;;23.67;74.82
49122;BME280;35529;44.342;25.944;2022-07-30T04:22:12;100652.31;;;23.75;74.65
49122;BME280;35529;44.342;25.944;2022-07-30T04:24:38;100651.44;;;23.85;74.39
49122;BME280;35529;44.342;25.944;2022-07-30T04:27:05;100652.47;;;23.99;73.77
49122;BME280;35529;44.342;25.944;2022-07-30T04:29:31;100655.31;;;24.13;73.31
49122;BME280;35529;44.342;25.944;2022-07-30T04:31:57;100649.81;;;24.23;72.80
49122;BME280;35529;44.342;25.944;2022-07-30T04:34:24;100657.03;;;24.38;72.05
49122;BME280;35529;44.342;25.944;2022-07-30T04:36:50;100656.78;;;24.35;71.97
49122;BME280;35529;44.342;25.944;2022-07-30T04:39:16;100655.31;;;24.48;71.66
49122;BME280;35529;44.342;25.944;2022-07-30T04:41:42;100647.59;;;24.60;71.31
49122;BME280;35529;44.342;25.944;2022-07-30T04:44:08;100653.78;;;24.66;71.05
49122;BME280;35529;44.342;25.944;2022-07-30T04:46:35;100660.56;;;24.68;70.72
49122;BME280;35529;44.342;25.944;2022-07-30T04:49:01;100657.84;;;24.68;70.70
49122;BME280;35529;44.342;25.944;2022-07-30T04:51:30;100647.59;;;24.60;71.04
49122;BME280;35529;44.342;25.944;2022-07-30T04:53:57;100651.09;;;24.66;71.08
49122;BME280;35529;44.342;25.944;2022-07-30T04:56:23;100652.22;;;24.89;70.49
49122;BME280;35529;44.342;25.944;2022-07-30T04:58:50;100652.56;;;25.06;69.86
49122;BME280;35529;44.342;25.944;2022-07-30T05:01:24;100642.03;;;25.24;69.24
49122;BME280;35529;44.342;25.944;2022-07-30T05:03:52;100651.84;;;25.44;68.51
49122;BME280;35529;44.342;25.944;2022-07-30T05:06:19;100645.53;;;25.49;67.92
49122;BME280;35529;44.342;25.944;2022-07-30T05:08:45;100649.72;;;25.60;67.43
49122;BME280;35529;44.342;25.944;2022-07-30T05:11:12;100645.25;;;25.69;66.98
49122;BME280;35529;44.342;25.944;2022-07-30T05:13:42;100644.94;;;25.71;66.80
49122;BME280;35529;44.342;25.944;2022-07-30T05:16:08;100648.09;;;25.78;66.51
49122;BME280;35529;44.342;25.944;2022-07-30T05:18:34;100643.94;;;26.00;65.80
49122;BME280;35529;44.342;25.944;2022-07-30T05:21:01;100645.56;;;26.01;65.80
49122;BME280;35529;44.342;25.944;2022-07-30T05:23:27;100648.16;;;25.92;66.12
49122;BME280;35529;44.342;25.944;2022-07-30T05:25:53;100653.22;;;25.99;66.24
49122;BME280;35529;44.342;25.944;2022-07-30T05:28:19;100645.00;;;26.04;65.70
49122;BME280;35529;44.342;25.944;2022-07-30T05:30:45;100649.50;;;26.14;65.48
49122;BME280;35529;44.342;25.944;2022-07-30T05:33:11;100644.47;;;26.21;65.53
49122;BME280;35529;44.342;25.944;2022-07-30T05:35:37;100639.41;;;26.14;65.40
49122;BME280;35529;44.342;25.944;2022-07-30T05:38:04;100646.00;;;26.27;65.25
49122;BME280;35529;44.342;25.944;2022-07-30T05:40:30;100645.91;;;26.32;64.97
49122;BME280;35529;44.342;25.944;2022-07-30T05:42:56;100650.88;;;26.44;64.48
49122;BME280;35529;44.342;25.944;2022-07-30T05:45:22;100643.03;;;26.56;63.90
49122;BME280;35529;44.342;25.944;2022-07-30T05:47:48;100645.16;;;26.59;63.61
49122;BME280;35529;44.342;25.944;2022-07-30T05:50:14;100647.28;;;26.63;63.66
49122;BME280;35529;44.342;25.944;2022-07-30T05:52:40;100649.59;;;26.69;63.09
49122;BME280;35529;44.342;25.944;2022-07-30T05:55:07;100639.31;;;26.66;63.39
49122;BME280;35529;44.342;25.944;2022-07-30T05:57:34;100650.25;;;26.80;62.82
49122;BME280;35529;44.342;25.944;2022-07-30T06:00:01;100640.47;;;26.93;62.40
49122;BME280;35529;44.342;25.944;2022-07-30T06:02:28;100641.88;;;26.90;62.15
49122;BME280;35529;44.342;25.944;2022-07-30T06:04:54;100642.09;;;26.94;62.40
49122;BME280;35529;44.342;25.944;2022-07-30T06:07:20;100644.59;;;27.04;61.79
49122;BME280;35529;44.342;25.944;2022-07-30T06:09:46;100644.50;;;26.96;61.80
49122;BME280;35529;44.342;25.944;2022-07-30T06:12:12;100648.13;;;27.05;61.92
49122;BME280;35529;44.342;25.944;2022-07-30T06:14:38;100640.56;;;27.16;61.62
49122;BME280;35529;44.342;25.944;2022-07-30T06:17:04;100637.41;;;27.08;61.42
49122;BME280;35529;44.342;25.944;2022-07-30T06:19:30;100640.13;;;27.08;61.67
49122;BME280;35529;44.342;25.944;2022-07-30T06:21:57;100638.31;;;27.18;61.95
49122;BME280;35529;44.342;25.944;2022-07-30T06:24:23;100644.66;;;27.27;61.42
49122;BME280;35529;44.342;25.944;2022-07-30T06:26:49;100646.09;;;27.38;60.94
49122;BME280;35529;44.342;25.944;2022-07-30T06:29:15;100643.69;;;27.37;60.26
49122;BME280;35529;44.342;25.944;2022-07-30T06:31:41;100640.53;;;27.43;60.50
49122;BME280;35529;44.342;25.944;2022-07-30T06:34:07;100640.03;;;27.41;60.24
49122;BME280;35529;44.342;25.944;2022-07-30T06:36:33;100635.56;;;27.59;59.76
49122;BME280;35529;44.342;25.944;2022-07-30T06:38:59;100635.81;;;27.72;59.36
49122;BME280;35529;44.342;25.944;2022-07-30T06:41:26;100635.19;;;27.75;59.31
49122;BME280;35529;44.342;25.944;2022-07-30T06:43:52;100636.19;;;27.79;59.30
49122;BME280;35529;44.342;25.944;2022-07-30T06:46:18;100639.22;;;27.77;59.47
49122;BME280;35529;44.342;25.944;2022-07-30T06:48:44;100634.00;;;27.90;58.86
49122;BME280;35529;44.342;25.944;2022-07-30T06:51:10;100630.25;;;28.00;58.82
49122;BME280;35529;44.342;25.944;2022-07-30T06:53:36;100626.34;;;28.15;58.06
49122;BME280;35529;44.342;25.944;2022-07-30T06:56:02;100624.66;;;28.27;57.78
49122;BME280;35529;44.342;25.944;2022-07-30T06:58:28;100628.97;;;28.20;57.42
49122;BME280;35529;44.342;25.944;2022-07-30T07:00:55;100618.50;;;27.99;58.34
49122;BME280;35529;44.342;25.944;2022-07-30T07:03:21;100622.84;;;28.00;57.90
49122;BME280;35529;44.342;25.944;2022-07-30T07:05:47;100616.09;;;28.20;57.27
49122;BME280;35529;44.342;25.944;2022-07-30T07:08:13;100611.31;;;28.26;56.38
49122;BME280;35529;44.342;25.944;2022-07-30T07:10:39;100616.84;;;28.35;56.19
49122;BME280;35529;44.342;25.944;2022-07-30T07:13:05;100610.59;;;28.43;55.44
49122;BME280;35529;44.342;25.944;2022-07-30T07:15:31;100609.69;;;28.56;55.17
49122;BME280;35529;44.342;25.944;2022-07-30T07:17:57;100606.22;;;28.65;55.38
49122;BME280;35529;44.342;25.944;2022-07-30T07:20:23;100614.28;;;28.79;54.43
49122;BME280;35529;44.342;25.944;2022-07-30T07:22:50;100607.75;;;28.97;53.86
49122;BME280;35529;44.342;25.944;2022-07-30T07:25:16;100601.03;;;29.12;53.13
49122;BME280;35529;44.342;25.944;2022-07-30T07:27:42;100601.22;;;29.24;52.71
49122;BME280;35529;44.342;25.944;2022-07-30T07:30:08;100597.91;;;29.36;51.59
49122;BME280;35529;44.342;25.944;2022-07-30T07:32:35;100600.31;;;29.38;51.67
49122;BME280;35529;44.342;25.944;2022-07-30T07:35:01;100599.19;;;29.48;51.37
49122;BME280;35529;44.342;25.944;2022-07-30T07:37:27;100588.25;;;29.56;51.10
49122;BME280;35529;44.342;25.944;2022-07-30T07:39:53;100601.91;;;29.65;51.08
49122;BME280;35529;44.342;25.944;2022-07-30T07:42:20;100600.13;;;29.69;50.34
49122;BME280;35529;44.342;25.944;2022-07-30T07:44:46;100594.34;;;29.80;50.41
49122;BME280;35529;44.342;25.944;2022-07-30T07:47:12;100600.63;;;29.89;49.91
49122;BME280;35529;44.342;25.944;2022-07-30T07:49:38;100599.31;;;29.95;48.45
49122;BME280;35529;44.342;25.944;2022-07-30T07:52:04;100600.75;;;30.01;48.45
49122;BME280;35529;44.342;25.944;2022-07-30T07:54:30;100603.34;;;30.06;47.07
49122;BME280;35529;44.342;25.944;2022-07-30T07:56:56;100604.56;;;30.18;47.20
49122;BME280;35529;44.342;25.944;2022-07-30T07:59:23;100594.75;;;30.25;47.25
49122;BME280;35529;44.342;25.944;2022-07-30T08:01:49;100601.97;;;30.30;46.99
49122;BME280;35529;44.342;25.944;2022-07-30T08:04:16;100603.56;;;30.31;46.18
49122;BME280;35529;44.342;25.944;2022-07-30T08:06:42;100601.00;;;30.35;46.14
49122;BME280;35529;44.342;25.944;2022-07-30T08:09:08;100598.22;;;30.43;45.49
49122;BME280;35529;44.342;25.944;2022-07-30T08:11:34;100604.47;;;30.53;45.55
49122;BME280;35529;44.342;25.944;2022-07-30T08:14:00;100593.84;;;30.51;44.95
49122;BME280;35529;44.342;25.944;2022-07-30T08:16:26;100600.78;;;30.57;45.36
49122;BME280;35529;44.342;25.944;2022-07-30T08:18:52;100595.44;;;30.61;44.94
49122;BME280;35529;44.342;25.944;2022-07-30T08:21:18;100591.03;;;30.69;43.47
49122;BME280;35529;44.342;25.944;2022-07-30T08:23:44;100606.44;;;30.82;43.17
49122;BME280;35529;44.342;25.944;2022-07-30T08:26:11;100596.41;;;30.86;43.54
49122;BME280;35529;44.342;25.944;2022-07-30T08:28:37;100593.38;;;30.88;43.61
49122;BME280;35529;44.342;25.944;2022-07-30T08:31:03;100601.66;;;31.00;43.82
49122;BME280;35529;44.342;25.944;2022-07-30T08:33:29;100594.69;;;31.12;43.73
49122;BME280;35529;44.342;25.944;2022-07-30T08:35:55;100589.94;;;31.21;43.13
49122;BME280;35529;44.342;25.944;2022-07-30T08:38:22;100589.28;;;31.24;42.40
49122;BME280;35529;44.342;25.944;2022-07-30T08:40:48;100589.53;;;31.31;42.11
49122;BME280;35529;44.342;25.944;2022-07-30T08:43:14;100584.94;;;31.23;40.17
49122;BME280;35529;44.342;25.944;2022-07-30T08:45:41;100585.91;;;31.18;40.65
49122;BME280;35529;44.342;25.944;2022-07-30T08:48:09;100579.31;;;31.19;40.31
49122;BME280;35529;44.342;25.944;2022-07-30T08:50:35;100576.09;;;31.17;41.01
49122;BME280;35529;44.342;25.944;2022-07-30T08:53:02;100584.72;;;31.28;41.29
49122;BME280;35529;44.342;25.944;2022-07-30T08:55:28;100575.16;;;31.34;40.42
49122;BME280;35529;44.342;25.944;2022-07-30T08:57:55;100573.28;;;31.26;39.10
49122;BME280;35529;44.342;25.944;2022-07-30T09:00:21;100563.59;;;31.29;39.68
49122;BME280;35529;44.342;25.944;2022-07-30T09:02:47;100567.59;;;31.31;40.22
49122;BME280;35529;44.342;25.944;2022-07-30T09:05:13;100564.75;;;31.40;40.64
49122;BME280;35529;44.342;25.944;2022-07-30T09:07:39;100564.69;;;31.49;40.02
49122;BME280;35529;44.342;25.944;2022-07-30T09:10:06;100552.25;;;31.51;39.57
49122;BME280;35529;44.342;25.944;2022-07-30T09:12:34;100541.50;;;31.58;40.01
49122;BME280;35529;44.342;25.944;2022-07-30T09:15:04;100549.13;;;31.62;39.43
49122;BME280;35529;44.342;25.944;2022-07-30T09:17:46;100550.84;;;31.66;39.02
49122;BME280;35529;44.342;25.944;2022-07-30T09:20:12;100542.59;;;31.66;38.86
49122;BME280;35529;44.342;25.944;2022-07-30T09:22:42;100546.53;;;31.78;39.04
49122;BME280;35529;44.342;25.944;2022-07-30T09:25:09;100533.75;;;31.94;38.52
49122;BME280;35529;44.342;25.944;2022-07-30T09:27:48;100525.97;;;31.96;37.36
49122;BME280;35529;44.342;25.944;2022-07-30T09:30:14;100526.34;;;32.07;37.47
49122;BME280;35529;44.342;25.944;2022-07-30T09:32:51;100523.84;;;32.14;37.18
49122;BME280;35529;44.342;25.944;2022-07-30T09:35:17;100507.72;;;32.25;37.60
49122;BME280;35529;44.342;25.944;2022-07-30T09:37:44;100518.84;;;32.29;37.73
49122;BME280;35529;44.342;25.944;2022-07-30T09:40:15;100517.34;;;32.31;35.84
49122;BME280;35529;44.342;25.944;2022-07-30T09:42:41;100517.09;;;32.36;36.51
49122;BME280;35529;44.342;25.944;2022-07-30T09:45:12;100506.94;;;32.37;35.58
49122;BME280;35529;44.342;25.944;2022-07-30T09:47:39;100511.03;;;32.43;36.11
49122;BME280;35529;44.342;25.944;2022-07-30T09:50:07;100502.69;;;32.39;34.94
49122;BME280;35529;44.342;25.944;2022-07-30T09:52:34;100498.09;;;32.44;35.60
49122;BME280;35529;44.342;25.944;2022-07-30T09:55:00;100504.72;;;32.55;36.11
49122;BME280;35529;44.342;25.944;2022-07-30T09:57:27;100493.03;;;32.70;34.80
49122;BME280;35529;44.342;25.944;2022-07-30T09:59:56;100496.25;;;32.85;34.28
49122;BME280;35529;44.342;25.944;2022-07-30T10:02:32;100486.56;;;32.91;34.67
49122;BME280;35529;44.342;25.944;2022-07-30T10:05:08;100489.09;;;32.96;34.26
49122;BME280;35529;44.342;25.944;2022-07-30T10:07:34;100480.84;;;32.96;33.22
49122;BME280;35529;44.342;25.944;2022-07-30T10:10:01;100473.59;;;33.04;33.37
49122;BME280;35529;44.342;25.944;2022-07-30T10:12:27;100476.22;;;33.00;33.23
49122;BME280;35529;44.342;25.944;2022-07-30T10:14:54;100476.69;;;33.02;34.52
49122;BME280;35529;44.342;25.944;2022-07-30T10:17:21;100469.47;;;32.98;34.59
49122;BME280;35529;44.342;25.944;2022-07-30T10:19:47;100470.72;;;33.00;33.71
49122;BME280;35529;44.342;25.944;2022-07-30T10:22:14;100475.28;;;33.08;34.42
49122;BME280;35529;44.342;25.944;2022-07-30T10:24:40;100469.44;;;33.10;34.12
49122;BME280;35529;44.342;25.944;2022-07-30T10:27:07;100467.59;;;33.14;33.24
49122;BME280;35529;44.342;25.944;2022-07-30T10:29:33;100456.25;;;33.16;32.97
49122;BME280;35529;44.342;25.944;2022-07-30T10:32:03;100459.19;;;33.23;33.35
49122;BME280;35529;44.342;25.944;2022-07-30T10:34:30;100453.00;;;33.26;33.21
49122;BME280;35529;44.342;25.944;2022-07-30T10:36:59;100458.25;;;33.31;32.90
49122;BME280;35529;44.342;25.944;2022-07-30T10:39:29;100451.97;;;33.47;33.49
49122;BME280;35529;44.342;25.944;2022-07-30T10:42:06;100442.22;;;33.65;32.98
49122;BME280;35529;44.342;25.944;2022-07-30T10:47:09;100436.75;;;33.81;31.75
49122;BME280;35529;44.342;25.944;2022-07-30T10:49:36;100448.09;;;33.80;31.78
49122;BME280;35529;44.342;25.944;2022-07-30T10:52:02;100434.78;;;33.82;31.19
49122;BME280;35529;44.342;25.944;2022-07-30T11:02:16;100425.50;;;34.22;30.98
49122;BME280;35529;44.342;25.944;2022-07-30T11:04:42;100422.47;;;34.27;31.01
49122;BME280;35529;44.342;25.944;2022-07-30T11:09:47;100415.09;;;34.31;31.35
49122;BME280;35529;44.342;25.944;2022-07-30T11:12:13;100415.19;;;34.35;30.90
49122;BME280;35529;44.342;25.944;2022-07-30T11:17:09;100417.84;;;34.31;29.62
49122;BME280;35529;44.342;25.944;2022-07-30T11:19:35;100414.31;;;34.31;30.42
49122;BME280;35529;44.342;25.944;2022-07-30T11:24:47;100416.69;;;34.32;29.76
49122;BME280;35529;44.342;25.944;2022-07-30T11:29:58;100387.47;;;34.47;30.40
49122;BME280;35529;44.342;25.944;2022-07-30T11:32:32;100392.06;;;34.59;30.39
49122;BME280;35529;44.342;25.944;2022-07-30T11:40:29;100376.91;;;34.88;29.17
49122;BME280;35529;44.342;25.944;2022-07-30T11:45:41;100364.16;;;35.03;29.75
49122;BME280;35529;44.342;25.944;2022-07-30T11:48:08;100361.81;;;35.05;29.26
49122;BME280;35529;44.342;25.944;2022-07-30T11:50:35;100358.84;;;35.14;29.43
49122;BME280;35529;44.342;25.944;2022-07-30T11:53:03;100349.44;;;35.19;29.08
49122;BME280;35529;44.342;25.944;2022-07-30T11:57:56;100347.50;;;35.43;28.89
49122;BME280;35529;44.342;25.944;2022-07-30T12:00:22;100358.72;;;35.53;29.01
49122;BME280;35529;44.342;25.944;2022-07-30T12:02:49;100336.25;;;35.55;29.17
49122;BME280;35529;44.342;25.944;2022-07-30T12:05:21;100326.38;;;35.54;28.78
49122;BME280;35529;44.342;25.944;2022-07-30T12:07:48;100318.25;;;35.38;28.69
49122;BME280;35529;44.342;25.944;2022-07-30T12:10:15;100322.72;;;35.46;29.26
49122;BME280;35529;44.342;25.944;2022-07-30T12:12:42;100323.09;;;35.45;28.54
49122;BME280;35529;44.342;25.944;2022-07-30T12:15:09;100316.50;;;35.53;28.38
49122;BME280;35529;44.342;25.944;2022-07-30T12:17:44;100309.94;;;35.61;28.33
49122;BME280;35529;44.342;25.944;2022-07-30T12:20:14;100311.78;;;35.53;28.70
49122;BME280;35529;44.342;25.944;2022-07-30T12:22:41;100308.97;;;35.50;29.17
49122;BME280;35529;44.342;25.944;2022-07-30T12:25:07;100309.59;;;35.39;28.66
49122;BME280;35529;44.342;25.944;2022-07-30T12:27:34;100301.41;;;35.47;28.79
49122;BME280;35529;44.342;25.944;2022-07-30T12:30:00;100301.19;;;35.55;28.06
49122;BME280;35529;44.342;25.944;2022-07-30T12:32:27;100298.97;;;35.68;27.97
49122;BME280;35529;44.342;25.944;2022-07-30T12:34:56;100286.84;;;35.77;27.93
49122;BME280;35529;44.342;25.944;2022-07-30T12:37:23;100290.53;;;35.84;27.73
49122;BME280;35529;44.342;25.944;2022-07-30T12:40:03;100281.19;;;35.93;27.91
49122;BME280;35529;44.342;25.944;2022-07-30T12:42:29;100270.69;;;36.05;27.88
49122;BME280;35529;44.342;25.944;2022-07-30T12:44:55;100265.50;;;36.00;27.68
49122;BME280;35529;44.342;25.944;2022-07-30T12:47:23;100269.41;;;35.99;27.54
49122;BME280;35529;44.342;25.944;2022-07-30T12:49:50;100264.72;;;36.03;26.72
49122;BME280;35529;44.342;25.944;2022-07-30T12:52:34;100248.31;;;36.18;25.88
49122;BME280;35529;44.342;25.944;2022-07-30T12:55:07;100260.53;;;36.13;27.40
49122;BME280;35529;44.342;25.944;2022-07-30T13:00:19;100238.75;;;36.08;27.24
49122;BME280;35529;44.342;25.944;2022-07-30T13:02:46;100230.75;;;35.99;26.80
49122;BME280;35529;44.342;25.944;2022-07-30T13:05:12;100232.78;;;36.02;26.12
49122;BME280;35529;44.342;25.944;2022-07-30T13:10:37;100230.50;;;36.46;26.36
49122;BME280;35529;44.342;25.944;2022-07-30T13:13:03;100220.19;;;36.84;24.22
49122;BME280;35529;44.342;25.944;2022-07-30T13:15:29;100219.50;;;37.50;23.29
49122;BME280;35529;44.342;25.944;2022-07-30T13:17:56;100216.63;;;38.13;23.69
49122;BME280;35529;44.342;25.944;2022-07-30T13:20:22;100209.22;;;38.75;23.33